Gumtree, North Carolina
Current Conditions -  °F | °C
As of 1:54 PM on Thursday 23 Oct 2014 (Local Time) from KINT Reporting Station
Clear Clear  
Wind Chill: 65°   Ceiling: Unl
Heat Index: 65°   Visibility: 10mi
Dew Point: 38°   Wind: 7mph
Humidity: 37%   Direction: 310°NW
Pressure: 30.02"   Gusts: 17mph
Location:  36.0182°N, 80.183°W
Report Text: KINT 231754Z 31006G15KT 10SM CLR 18/03 A3002 RMK AO2 SLP162 T01830033 10183 20094 58017
Loading
Personal Weather Stations






























Interactive Weather Map
Tropical Storm Tracking
New forecast layout! Learn more

10-Day Weather Forecast

Advertisements
Track Severe Weather on mobile